ATX5111 RPEN-RPLL
Flight info
| Callsign | ATX5111 |
|---|---|
| Flight time | 0h 59m |
| Altitude | 17000 |
| Route | TOKON M646 BUCAL BUCAL1A |
| Aircraft | AT76/M-SDFGIRY/S |
Departure
| Time | 2026-05-04 16:47 |
|---|---|
| Airport | El Nido Airport (RPEN) |
Arrival
| Time | 2026-05-04 17:46 |
|---|---|
| Airport | Ninoy Aquino International Airport (RPLL) |
| Time | Latitude | Longitude | Altitude | Speed | Heading |
|---|---|---|---|---|---|
| 2026-05-04 16:29 | 11.20116 | 119.41822 | 15 ft | 0 kts | 145° |
| 2026-05-04 16:42 | 11.20114 | 119.41822 | 19 ft | 1 kts | 159° |
| 2026-05-04 16:43 | 11.20068 | 119.41762 | 15 ft | 9 kts | 236° |
| 2026-05-04 16:43 | 11.19960 | 119.41810 | 14 ft | 11 kts | 146° |
| 2026-05-04 16:43 | 11.19898 | 119.41851 | 13 ft | 10 kts | 147° |
| 2026-05-04 16:44 | 11.19718 | 119.41968 | 13 ft | 1 kts | 269° |
| 2026-05-04 16:45 | 11.19724 | 119.41965 | 11 ft | 0 kts | 327° |
| 2026-05-04 16:47 | 11.20033 | 119.41762 | 14 ft | 76 kts | 327° |
| 2026-05-04 16:47 | 11.21288 | 119.40816 | 583 ft | 118 kts | 322° |
| 2026-05-04 16:48 | 11.23503 | 119.39365 | 1839 ft | 133 kts | 351° |
| 2026-05-04 16:48 | 11.24487 | 119.39059 | 1841 ft | 161 kts | 349° |
| 2026-05-04 16:49 | 11.26844 | 119.38314 | 2223 ft | 183 kts | 348° |
| 2026-05-04 16:49 | 11.29269 | 119.37492 | 2935 ft | 185 kts | 348° |
| 2026-05-04 16:50 | 11.31703 | 119.36751 | 3535 ft | 179 kts | 8° |
| 2026-05-04 16:50 | 11.34035 | 119.37447 | 4141 ft | 175 kts | 27° |
| 2026-05-04 16:51 | 11.36032 | 119.38809 | 4753 ft | 174 kts | 43° |
| 2026-05-04 16:51 | 11.36974 | 119.39587 | 5035 ft | 175 kts | 43° |
| 2026-05-04 16:51 | 11.38870 | 119.41176 | 5609 ft | 178 kts | 43° |
| 2026-05-04 16:52 | 11.40796 | 119.42800 | 6183 ft | 181 kts | 42° |
| 2026-05-04 16:52 | 11.41757 | 119.43608 | 6445 ft | 182 kts | 42° |
| 2026-05-04 16:53 | 11.43724 | 119.45259 | 6968 ft | 184 kts | 41° |
| 2026-05-04 16:53 | 11.46718 | 119.47779 | 7737 ft | 188 kts | 41° |
| 2026-05-04 16:54 | 11.47729 | 119.48630 | 7994 ft | 189 kts | 41° |
| 2026-05-04 16:55 | 11.51840 | 119.52089 | 8952 ft | 194 kts | 41° |
| 2026-05-04 16:55 | 11.53930 | 119.53850 | 9445 ft | 196 kts | 41° |
| 2026-05-04 16:56 | 11.56044 | 119.55628 | 9900 ft | 198 kts | 41° |
| 2026-05-04 16:56 | 11.59236 | 119.58314 | 10523 ft | 199 kts | 41° |
| 2026-05-04 16:57 | 11.60305 | 119.59214 | 10730 ft | 200 kts | 41° |
| 2026-05-04 16:57 | 11.62450 | 119.61020 | 11158 ft | 200 kts | 41° |
| 2026-05-04 16:58 | 11.65690 | 119.63748 | 11766 ft | 202 kts | 42° |
| 2026-05-04 16:58 | 11.66760 | 119.64650 | 11961 ft | 202 kts | 42° |
| 2026-05-04 16:59 | 11.68937 | 119.66481 | 12342 ft | 203 kts | 42° |
| 2026-05-04 17:00 | 11.73892 | 119.69325 | 13070 ft | 208 kts | 26° |
| 2026-05-04 17:00 | 11.77877 | 119.71141 | 13600 ft | 210 kts | 28° |
| 2026-05-04 17:01 | 11.80516 | 119.72394 | 13895 ft | 211 kts | 28° |
| 2026-05-04 17:01 | 11.83183 | 119.73659 | 14166 ft | 212 kts | 28° |
| 2026-05-04 17:02 | 11.85861 | 119.74930 | 14425 ft | 213 kts | 28° |
| 2026-05-04 17:02 | 11.88553 | 119.76207 | 14712 ft | 214 kts | 28° |
| 2026-05-04 17:03 | 11.89905 | 119.76851 | 14853 ft | 215 kts | 29° |
| 2026-05-04 17:03 | 11.91262 | 119.77496 | 14998 ft | 215 kts | 29° |
| 2026-05-04 17:03 | 11.93970 | 119.78782 | 15275 ft | 216 kts | 29° |
| 2026-05-04 17:04 | 11.96708 | 119.80083 | 15545 ft | 218 kts | 29° |
| 2026-05-04 17:04 | 11.99463 | 119.81391 | 15800 ft | 219 kts | 29° |
| 2026-05-04 17:05 | 12.02227 | 119.82703 | 16039 ft | 220 kts | 29° |
| 2026-05-04 17:05 | 12.05006 | 119.84024 | 16266 ft | 221 kts | 29° |
| 2026-05-04 17:06 | 12.07798 | 119.85353 | 16484 ft | 222 kts | 28° |
| 2026-05-04 17:06 | 12.09198 | 119.86018 | 16587 ft | 222 kts | 28° |
| 2026-05-04 17:07 | 12.12008 | 119.87354 | 16813 ft | 224 kts | 29° |
| 2026-05-04 17:07 | 12.12951 | 119.87802 | 16850 ft | 227 kts | 28° |
| 2026-05-04 17:07 | 12.14878 | 119.88719 | 16878 ft | 233 kts | 28° |
| 2026-05-04 17:07 | 12.16360 | 119.89425 | 16893 ft | 237 kts | 28° |
| 2026-05-04 17:08 | 12.17873 | 119.90144 | 16901 ft | 241 kts | 28° |
| 2026-05-04 17:08 | 12.20950 | 119.91608 | 16903 ft | 247 kts | 28° |
| 2026-05-04 17:08 | 12.22514 | 119.92355 | 16907 ft | 249 kts | 28° |
| 2026-05-04 17:09 | 12.24098 | 119.93107 | 16905 ft | 251 kts | 28° |
| 2026-05-04 17:09 | 12.25689 | 119.93865 | 16899 ft | 253 kts | 28° |
| 2026-05-04 17:09 | 12.27288 | 119.94625 | 16895 ft | 254 kts | 28° |
| 2026-05-04 17:10 | 12.30500 | 119.96156 | 16901 ft | 255 kts | 28° |
| 2026-05-04 17:10 | 12.35336 | 119.98459 | 16901 ft | 256 kts | 28° |
| 2026-05-04 17:11 | 12.36926 | 119.99218 | 16902 ft | 256 kts | 28° |
| 2026-05-04 17:11 | 12.38543 | 119.99989 | 16898 ft | 256 kts | 28° |
| 2026-05-04 17:11 | 12.41778 | 120.01532 | 16904 ft | 257 kts | 28° |
| 2026-05-04 17:12 | 12.43395 | 120.02303 | 16901 ft | 257 kts | 28° |
| 2026-05-04 17:12 | 12.46633 | 120.03846 | 16901 ft | 257 kts | 28° |
| 2026-05-04 17:13 | 12.51497 | 120.06166 | 16898 ft | 257 kts | 28° |
| 2026-05-04 17:14 | 12.56359 | 120.08487 | 16903 ft | 257 kts | 28° |
| 2026-05-04 17:14 | 12.57983 | 120.09262 | 16899 ft | 257 kts | 28° |
| 2026-05-04 17:14 | 12.61235 | 120.10816 | 16899 ft | 258 kts | 28° |
| 2026-05-04 17:15 | 12.62860 | 120.11593 | 16901 ft | 258 kts | 28° |
| 2026-05-04 17:15 | 12.66110 | 120.13145 | 16899 ft | 258 kts | 28° |
| 2026-05-04 17:16 | 12.69361 | 120.14698 | 16900 ft | 258 kts | 28° |
| 2026-05-04 17:16 | 12.74215 | 120.17020 | 16899 ft | 258 kts | 28° |
| 2026-05-04 17:17 | 12.75863 | 120.17806 | 16900 ft | 258 kts | 28° |
| 2026-05-04 17:17 | 12.80723 | 120.20132 | 16897 ft | 258 kts | 27° |
| 2026-05-04 17:18 | 12.82348 | 120.20908 | 16897 ft | 258 kts | 28° |
| 2026-05-04 17:18 | 12.85602 | 120.22466 | 16893 ft | 258 kts | 27° |
| 2026-05-04 17:19 | 12.88853 | 120.24024 | 16897 ft | 258 kts | 27° |
| 2026-05-04 17:19 | 12.92112 | 120.25583 | 16893 ft | 258 kts | 27° |
| 2026-05-04 17:20 | 12.95369 | 120.27142 | 16894 ft | 258 kts | 27° |
| 2026-05-04 17:20 | 12.98624 | 120.28701 | 16897 ft | 258 kts | 27° |
| 2026-05-04 17:20 | 13.00255 | 120.29482 | 16900 ft | 258 kts | 27° |
| 2026-05-04 17:21 | 13.03513 | 120.31043 | 16898 ft | 259 kts | 27° |
| 2026-05-04 17:21 | 13.06752 | 120.32597 | 16896 ft | 259 kts | 27° |
| 2026-05-04 17:22 | 13.08381 | 120.33378 | 16898 ft | 259 kts | 27° |
| 2026-05-04 17:22 | 13.10010 | 120.34161 | 16898 ft | 259 kts | 27° |
| 2026-05-04 17:23 | 13.14905 | 120.36508 | 16897 ft | 259 kts | 27° |
| 2026-05-04 17:23 | 13.16532 | 120.37289 | 16900 ft | 259 kts | 27° |
| 2026-05-04 17:23 | 13.19798 | 120.38857 | 16899 ft | 259 kts | 27° |
| 2026-05-04 17:24 | 13.21430 | 120.39640 | 16900 ft | 259 kts | 27° |
| 2026-05-04 17:24 | 13.26330 | 120.41993 | 16903 ft | 259 kts | 27° |
| 2026-05-04 17:25 | 13.27960 | 120.42776 | 16907 ft | 259 kts | 27° |
| 2026-05-04 17:25 | 13.31230 | 120.44343 | 16906 ft | 259 kts | 27° |
| 2026-05-04 17:26 | 13.34466 | 120.45903 | 16906 ft | 259 kts | 27° |
| 2026-05-04 17:26 | 13.39382 | 120.48266 | 16903 ft | 260 kts | 27° |
| 2026-05-04 17:27 | 13.42664 | 120.49845 | 16908 ft | 260 kts | 27° |
| 2026-05-04 17:27 | 13.45941 | 120.51424 | 16907 ft | 260 kts | 27° |
| 2026-05-04 17:28 | 13.48666 | 120.52734 | 16915 ft | 260 kts | 27° |
| 2026-05-04 17:29 | 13.53591 | 120.55105 | 16911 ft | 260 kts | 27° |
| 2026-05-04 17:29 | 13.58496 | 120.57464 | 16912 ft | 259 kts | 27° |
| 2026-05-04 17:30 | 13.63397 | 120.59831 | 16916 ft | 259 kts | 27° |
| 2026-05-04 17:31 | 13.66666 | 120.61406 | 16911 ft | 259 kts | 27° |
| 2026-05-04 17:31 | 13.71569 | 120.63770 | 16911 ft | 259 kts | 27° |
| 2026-05-04 17:32 | 13.74816 | 120.65335 | 16903 ft | 260 kts | 27° |
| 2026-05-04 17:33 | 13.79730 | 120.67709 | 16912 ft | 261 kts | 27° |
| 2026-05-04 17:33 | 13.81371 | 120.68502 | 16902 ft | 261 kts | 27° |
| 2026-05-04 17:34 | 13.86541 | 120.71005 | 16005 ft | 290 kts | 27° |
| 2026-05-04 17:34 | 13.88399 | 120.71902 | 15603 ft | 299 kts | 27° |
| 2026-05-04 17:35 | 13.94180 | 120.74695 | 14389 ft | 313 kts | 27° |
| 2026-05-04 17:35 | 13.98086 | 120.76584 | 13582 ft | 303 kts | 27° |
| 2026-05-04 17:35 | 13.99975 | 120.77493 | 13144 ft | 296 kts | 27° |
| 2026-05-04 17:36 | 14.01827 | 120.78388 | 12719 ft | 292 kts | 27° |
| 2026-05-04 17:36 | 14.03661 | 120.79275 | 12305 ft | 290 kts | 27° |
| 2026-05-04 17:36 | 14.05483 | 120.80160 | 11892 ft | 289 kts | 27° |
| 2026-05-04 17:36 | 14.07297 | 120.81035 | 11507 ft | 287 kts | 27° |
| 2026-05-04 17:37 | 14.09101 | 120.81909 | 11113 ft | 286 kts | 27° |
| 2026-05-04 17:37 | 14.10901 | 120.82780 | 10735 ft | 285 kts | 27° |
| 2026-05-04 17:37 | 14.12692 | 120.83646 | 10352 ft | 284 kts | 28° |
| 2026-05-04 17:37 | 14.14472 | 120.84511 | 9979 ft | 283 kts | 28° |
| 2026-05-04 17:38 | 14.16255 | 120.85374 | 9574 ft | 281 kts | 28° |
| 2026-05-04 17:38 | 14.18060 | 120.86122 | 9158 ft | 279 kts | 21° |
| 2026-05-04 17:38 | 14.19902 | 120.86754 | 8752 ft | 278 kts | 21° |
| 2026-05-04 17:38 | 14.21751 | 120.87345 | 8350 ft | 278 kts | 18° |
| 2026-05-04 17:39 | 14.25489 | 120.88116 | 7575 ft | 274 kts | 6° |
| 2026-05-04 17:39 | 14.27367 | 120.87827 | 7189 ft | 273 kts | 348° |
| 2026-05-04 17:39 | 14.29205 | 120.87333 | 6807 ft | 274 kts | 345° |
| 2026-05-04 17:40 | 14.30988 | 120.86618 | 6430 ft | 276 kts | 336° |
| 2026-05-04 17:40 | 14.32631 | 120.85691 | 6056 ft | 263 kts | 332° |
| 2026-05-04 17:40 | 14.34165 | 120.84738 | 5681 ft | 253 kts | 331° |
| 2026-05-04 17:40 | 14.35636 | 120.83805 | 5295 ft | 244 kts | 331° |
| 2026-05-04 17:41 | 14.37077 | 120.82924 | 4911 ft | 236 kts | 334° |
| 2026-05-04 17:41 | 14.38592 | 120.82499 | 4593 ft | 222 kts | 7° |
| 2026-05-04 17:41 | 14.39960 | 120.83068 | 4228 ft | 212 kts | 43° |
| 2026-05-04 17:41 | 14.40976 | 120.84183 | 3874 ft | 215 kts | 54° |
| 2026-05-04 17:42 | 14.41816 | 120.85478 | 3599 ft | 220 kts | 61° |
| 2026-05-04 17:42 | 14.42555 | 120.86841 | 3316 ft | 214 kts | 63° |
| 2026-05-04 17:42 | 14.43257 | 120.88177 | 2966 ft | 210 kts | 62° |
| 2026-05-04 17:42 | 14.43934 | 120.89477 | 2641 ft | 206 kts | 62° |
| 2026-05-04 17:43 | 14.44626 | 120.90772 | 2298 ft | 206 kts | 62° |
| 2026-05-04 17:43 | 14.45330 | 120.92068 | 1821 ft | 209 kts | 62° |
| 2026-05-04 17:43 | 14.46036 | 120.93347 | 1611 ft | 200 kts | 61° |
| 2026-05-04 17:43 | 14.46725 | 120.94573 | 1312 ft | 194 kts | 60° |
| 2026-05-04 17:44 | 14.47387 | 120.95757 | 1047 ft | 187 kts | 61° |
| 2026-05-04 17:44 | 14.48011 | 120.96868 | 845 ft | 168 kts | 60° |
| 2026-05-04 17:44 | 14.48566 | 120.97848 | 620 ft | 149 kts | 62° |
| 2026-05-04 17:44 | 14.49069 | 120.98707 | 438 ft | 129 kts | 62° |
| 2026-05-04 17:45 | 14.49494 | 120.99480 | 263 ft | 123 kts | 63° |
| 2026-05-04 17:45 | 14.49921 | 121.00250 | 99 ft | 117 kts | 63° |
| 2026-05-04 17:45 | 14.50278 | 121.00898 | 56 ft | 93 kts | 62° |
| 2026-05-04 17:45 | 14.50563 | 121.01412 | 53 ft | 73 kts | 60° |
| 2026-05-04 17:46 | 14.50725 | 121.01678 | 46 ft | 29 kts | 48° |
| 2026-05-04 17:46 | 14.50858 | 121.01786 | 35 ft | 12 kts | 27° |
| 2026-05-04 17:46 | 14.50910 | 121.01755 | 29 ft | 9 kts | 292° |
| 2026-05-04 17:46 | 14.50870 | 121.01676 | 36 ft | 21 kts | 240° |
| 2026-05-04 17:47 | 14.50807 | 121.01566 | 43 ft | 15 kts | 240° |
| 2026-05-04 17:47 | 14.50742 | 121.01448 | 47 ft | 23 kts | 240° |
| 2026-05-04 17:47 | 14.50672 | 121.01323 | 51 ft | 18 kts | 240° |
| 2026-05-04 17:47 | 14.50601 | 121.01196 | 54 ft | 20 kts | 240° |
| 2026-05-04 17:48 | 14.50607 | 121.01130 | 50 ft | 16 kts | 319° |
| 2026-05-04 17:48 | 14.50684 | 121.01102 | 52 ft | 4 kts | 330° |